sensor_id;sensor_type;location;lat;lon;timestamp;P1;durP1;ratioP1;P2;durP2;ratioP2
68690;SDS011;55675;49.588;8.640;2022-09-16T00:00:29;2.67;;;1.50;;
68690;SDS011;55675;49.588;8.640;2022-09-16T00:02:56;3.00;;;1.40;;
68690;SDS011;55675;49.588;8.640;2022-09-16T00:05:22;2.73;;;1.53;;
68690;SDS011;55675;49.588;8.640;2022-09-16T00:07:48;2.27;;;1.40;;
68690;SDS011;55675;49.588;8.640;2022-09-16T00:10:13;3.10;;;1.50;;
68690;SDS011;55675;49.588;8.640;2022-09-16T00:12:39;6.73;;;1.70;;
68690;SDS011;55675;49.588;8.640;2022-09-16T00:15:05;2.70;;;1.43;;
68690;SDS011;55675;49.588;8.640;2022-09-16T00:17:31;3.13;;;1.60;;
68690;SDS011;55675;49.588;8.640;2022-09-16T00:19:58;3.13;;;1.40;;
68690;SDS011;55675;49.588;8.640;2022-09-16T00:22:26;1.67;;;1.20;;
68690;SDS011;55675;49.588;8.640;2022-09-16T00:24:52;2.20;;;1.40;;
68690;SDS011;55675;49.588;8.640;2022-09-16T00:27:17;2.27;;;1.30;;
68690;SDS011;55675;49.588;8.640;2022-09-16T00:29:43;4.83;;;1.60;;
68690;SDS011;55675;49.588;8.640;2022-09-16T00:32:09;2.00;;;1.70;;
68690;SDS011;55675;49.588;8.640;2022-09-16T00:34:34;2.27;;;1.70;;
68690;SDS011;55675;49.588;8.640;2022-09-16T00:37:00;2.90;;;1.50;;
68690;SDS011;55675;49.588;8.640;2022-09-16T00:39:27;1.77;;;1.40;;
68690;SDS011;55675;49.588;8.640;2022-09-16T00:41:53;2.40;;;1.80;;
68690;SDS011;55675;49.588;8.640;2022-09-16T00:47:25;3.23;;;1.93;;
68690;SDS011;55675;49.588;8.640;2022-09-16T00:50:11;1.90;;;1.70;;
68690;SDS011;55675;49.588;8.640;2022-09-16T00:52:41;2.23;;;1.80;;
68690;SDS011;55675;49.588;8.640;2022-09-16T00:55:08;4.20;;;1.63;;
68690;SDS011;55675;49.588;8.640;2022-09-16T00:57:37;3.30;;;1.60;;
68690;SDS011;55675;49.588;8.640;2022-09-16T01:00:04;4.33;;;1.80;;
68690;SDS011;55675;49.588;8.640;2022-09-16T01:02:33;3.63;;;1.73;;
68690;SDS011;55675;49.588;8.640;2022-09-16T01:04:59;2.00;;;1.73;;
68690;SDS011;55675;49.588;8.640;2022-09-16T01:07:41;2.13;;;1.70;;
68690;SDS011;55675;49.588;8.640;2022-09-16T01:10:08;3.43;;;1.63;;
68690;SDS011;55675;49.588;8.640;2022-09-16T01:12:34;1.97;;;1.60;;
68690;SDS011;55675;49.588;8.640;2022-09-16T01:15:01;1.60;;;1.50;;
68690;SDS011;55675;49.588;8.640;2022-09-16T01:31:58;3.27;;;1.33;;
68690;SDS011;55675;49.588;8.640;2022-09-16T01:34:39;2.43;;;1.63;;
68690;SDS011;55675;49.588;8.640;2022-09-16T01:37:32;1.83;;;1.40;;
68690;SDS011;55675;49.588;8.640;2022-09-16T01:40:15;2.13;;;1.70;;
68690;SDS011;55675;49.588;8.640;2022-09-16T01:45:53;2.53;;;1.30;;
68690;SDS011;55675;49.588;8.640;2022-09-16T01:51:04;1.70;;;1.60;;
68690;SDS011;55675;49.588;8.640;2022-09-16T01:54:02;1.57;;;1.43;;
68690;SDS011;55675;49.588;8.640;2022-09-16T01:56:46;2.23;;;1.90;;
68690;SDS011;55675;49.588;8.640;2022-09-16T01:59:41;4.73;;;1.73;;
68690;SDS011;55675;49.588;8.640;2022-09-16T02:02:15;1.63;;;1.50;;
68690;SDS011;55675;49.588;8.640;2022-09-16T02:04:55;3.13;;;1.77;;
68690;SDS011;55675;49.588;8.640;2022-09-16T02:07:24;2.33;;;1.60;;
68690;SDS011;55675;49.588;8.640;2022-09-16T02:09:55;2.80;;;1.90;;
68690;SDS011;55675;49.588;8.640;2022-09-16T02:12:31;3.83;;;2.00;;
68690;SDS011;55675;49.588;8.640;2022-09-16T02:15:03;2.50;;;1.40;;
68690;SDS011;55675;49.588;8.640;2022-09-16T02:17:32;2.87;;;1.50;;
68690;SDS011;55675;49.588;8.640;2022-09-16T02:20:07;1.60;;;1.40;;
68690;SDS011;55675;49.588;8.640;2022-09-16T02:22:42;2.07;;;1.40;;
68690;SDS011;55675;49.588;8.640;2022-09-16T02:25:10;1.40;;;1.40;;
68690;SDS011;55675;49.588;8.640;2022-09-16T02:27:38;5.70;;;1.80;;
68690;SDS011;55675;49.588;8.640;2022-09-16T02:30:08;2.40;;;1.47;;
68690;SDS011;55675;49.588;8.640;2022-09-16T02:32:38;1.87;;;1.60;;
68690;SDS011;55675;49.588;8.640;2022-09-16T02:35:08;2.83;;;1.80;;
68690;SDS011;55675;49.588;8.640;2022-09-16T02:37:38;1.73;;;1.63;;
68690;SDS011;55675;49.588;8.640;2022-09-16T02:40:12;3.03;;;1.50;;
68690;SDS011;55675;49.588;8.640;2022-09-16T02:42:49;2.47;;;1.60;;
68690;SDS011;55675;49.588;8.640;2022-09-16T02:45:15;4.20;;;2.00;;
68690;SDS011;55675;49.588;8.640;2022-09-16T02:50:16;3.33;;;1.80;;
68690;SDS011;55675;49.588;8.640;2022-09-16T02:52:57;2.17;;;1.70;;
68690;SDS011;55675;49.588;8.640;2022-09-16T02:57:57;2.40;;;1.83;;
68690;SDS011;55675;49.588;8.640;2022-09-16T03:00:23;3.13;;;1.80;;
68690;SDS011;55675;49.588;8.640;2022-09-16T03:02:49;3.73;;;1.90;;
68690;SDS011;55675;49.588;8.640;2022-09-16T03:05:17;2.03;;;1.60;;
68690;SDS011;55675;49.588;8.640;2022-09-16T03:07:42;2.30;;;1.97;;
68690;SDS011;55675;49.588;8.640;2022-09-16T03:10:09;1.90;;;1.80;;
68690;SDS011;55675;49.588;8.640;2022-09-16T03:12:53;2.20;;;1.93;;
68690;SDS011;55675;49.588;8.640;2022-09-16T03:16:19;5.63;;;2.03;;
68690;SDS011;55675;49.588;8.640;2022-09-16T03:18:46;3.40;;;1.80;;
68690;SDS011;55675;49.588;8.640;2022-09-16T03:24:23;2.43;;;1.67;;
68690;SDS011;55675;49.588;8.640;2022-09-16T03:27:08;1.93;;;1.73;;
68690;SDS011;55675;49.588;8.640;2022-09-16T03:29:41;2.20;;;2.00;;
68690;SDS011;55675;49.588;8.640;2022-09-16T03:32:21;3.67;;;2.10;;
68690;SDS011;55675;49.588;8.640;2022-09-16T03:34:50;2.67;;;1.60;;
68690;SDS011;55675;49.588;8.640;2022-09-16T03:37:20;2.10;;;1.57;;
68690;SDS011;55675;49.588;8.640;2022-09-16T03:39:50;3.03;;;1.90;;
68690;SDS011;55675;49.588;8.640;2022-09-16T03:42:19;5.80;;;2.23;;
68690;SDS011;55675;49.588;8.640;2022-09-16T03:44:44;5.10;;;2.47;;
68690;SDS011;55675;49.588;8.640;2022-09-16T03:47:10;2.37;;;1.90;;
68690;SDS011;55675;49.588;8.640;2022-09-16T03:49:36;4.37;;;1.90;;
68690;SDS011;55675;49.588;8.640;2022-09-16T03:52:02;5.93;;;2.00;;
68690;SDS011;55675;49.588;8.640;2022-09-16T03:54:29;3.33;;;1.90;;
68690;SDS011;55675;49.588;8.640;2022-09-16T03:56:55;2.47;;;2.10;;
68690;SDS011;55675;49.588;8.640;2022-09-16T03:59:21;2.40;;;2.00;;
68690;SDS011;55675;49.588;8.640;2022-09-16T04:01:47;3.03;;;2.00;;
68690;SDS011;55675;49.588;8.640;2022-09-16T04:04:13;2.77;;;1.70;;
68690;SDS011;55675;49.588;8.640;2022-09-16T04:06:38;4.30;;;2.10;;
68690;SDS011;55675;49.588;8.640;2022-09-16T04:09:04;3.03;;;1.80;;
68690;SDS011;55675;49.588;8.640;2022-09-16T04:11:31;3.90;;;1.90;;
68690;SDS011;55675;49.588;8.640;2022-09-16T04:13:58;3.63;;;1.93;;
68690;SDS011;55675;49.588;8.640;2022-09-16T04:16:24;2.50;;;1.67;;
68690;SDS011;55675;49.588;8.640;2022-09-16T04:18:49;2.50;;;2.30;;
68690;SDS011;55675;49.588;8.640;2022-09-16T04:21:15;3.77;;;1.90;;
68690;SDS011;55675;49.588;8.640;2022-09-16T04:23:41;4.20;;;2.00;;
68690;SDS011;55675;49.588;8.640;2022-09-16T04:26:07;2.93;;;1.90;;
68690;SDS011;55675;49.588;8.640;2022-09-16T04:28:34;1.80;;;1.70;;
68690;SDS011;55675;49.588;8.640;2022-09-16T04:31:00;2.20;;;1.50;;
68690;SDS011;55675;49.588;8.640;2022-09-16T04:33:31;3.77;;;1.80;;
68690;SDS011;55675;49.588;8.640;2022-09-16T04:36:02;2.07;;;1.70;;
68690;SDS011;55675;49.588;8.640;2022-09-16T04:38:28;2.33;;;1.70;;
68690;SDS011;55675;49.588;8.640;2022-09-16T04:40:58;2.20;;;1.57;;
68690;SDS011;55675;49.588;8.640;2022-09-16T04:43:27;3.60;;;1.83;;
68690;SDS011;55675;49.588;8.640;2022-09-16T04:45:53;1.50;;;1.40;;
68690;SDS011;55675;49.588;8.640;2022-09-16T04:48:19;2.53;;;2.00;;
68690;SDS011;55675;49.588;8.640;2022-09-16T04:50:45;2.50;;;1.90;;
68690;SDS011;55675;49.588;8.640;2022-09-16T04:53:10;2.00;;;1.80;;
68690;SDS011;55675;49.588;8.640;2022-09-16T04:55:36;3.37;;;2.03;;
68690;SDS011;55675;49.588;8.640;2022-09-16T04:58:01;2.23;;;1.90;;
68690;SDS011;55675;49.588;8.640;2022-09-16T05:00:27;3.03;;;1.70;;
68690;SDS011;55675;49.588;8.640;2022-09-16T05:02:52;1.70;;;1.60;;
68690;SDS011;55675;49.588;8.640;2022-09-16T05:05:19;3.40;;;1.70;;
68690;SDS011;55675;49.588;8.640;2022-09-16T05:07:45;5.30;;;1.67;;
68690;SDS011;55675;49.588;8.640;2022-09-16T05:10:10;3.60;;;1.67;;
68690;SDS011;55675;49.588;8.640;2022-09-16T05:12:36;4.50;;;2.07;;
68690;SDS011;55675;49.588;8.640;2022-09-16T05:15:02;3.23;;;1.80;;
68690;SDS011;55675;49.588;8.640;2022-09-16T05:17:29;3.00;;;1.80;;
68690;SDS011;55675;49.588;8.640;2022-09-16T05:19:55;2.70;;;1.77;;
68690;SDS011;55675;49.588;8.640;2022-09-16T05:22:21;1.63;;;1.53;;
68690;SDS011;55675;49.588;8.640;2022-09-16T05:24:47;3.33;;;1.70;;
68690;SDS011;55675;49.588;8.640;2022-09-16T05:27:13;2.57;;;1.80;;
68690;SDS011;55675;49.588;8.640;2022-09-16T05:29:38;2.73;;;1.60;;
68690;SDS011;55675;49.588;8.640;2022-09-16T05:32:04;1.87;;;1.60;;
68690;SDS011;55675;49.588;8.640;2022-09-16T05:34:30;3.70;;;1.70;;
68690;SDS011;55675;49.588;8.640;2022-09-16T05:36:55;4.43;;;1.70;;
68690;SDS011;55675;49.588;8.640;2022-09-16T05:39:21;1.50;;;1.40;;
68690;SDS011;55675;49.588;8.640;2022-09-16T05:41:48;3.10;;;1.70;;
68690;SDS011;55675;49.588;8.640;2022-09-16T05:44:16;2.27;;;1.60;;
68690;SDS011;55675;49.588;8.640;2022-09-16T05:46:41;2.70;;;1.67;;
68690;SDS011;55675;49.588;8.640;2022-09-16T05:49:07;3.93;;;1.93;;
68690;SDS011;55675;49.588;8.640;2022-09-16T05:51:33;2.60;;;1.67;;
68690;SDS011;55675;49.588;8.640;2022-09-16T05:54:01;2.33;;;1.70;;
68690;SDS011;55675;49.588;8.640;2022-09-16T05:56:27;4.60;;;1.83;;
68690;SDS011;55675;49.588;8.640;2022-09-16T05:58:55;3.13;;;2.00;;
68690;SDS011;55675;49.588;8.640;2022-09-16T06:01:26;2.87;;;1.60;;
68690;SDS011;55675;49.588;8.640;2022-09-16T06:03:53;2.73;;;1.70;;
68690;SDS011;55675;49.588;8.640;2022-09-16T06:06:23;3.47;;;1.70;;
68690;SDS011;55675;49.588;8.640;2022-09-16T06:08:53;4.63;;;1.90;;
68690;SDS011;55675;49.588;8.640;2022-09-16T06:11:24;3.97;;;1.80;;
68690;SDS011;55675;49.588;8.640;2022-09-16T06:13:56;1.70;;;1.60;;
68690;SDS011;55675;49.588;8.640;2022-09-16T06:16:24;3.60;;;1.73;;
68690;SDS011;55675;49.588;8.640;2022-09-16T06:18:54;3.20;;;1.70;;
68690;SDS011;55675;49.588;8.640;2022-09-16T06:21:21;2.83;;;1.90;;
68690;SDS011;55675;49.588;8.640;2022-09-16T06:23:47;3.17;;;1.80;;
68690;SDS011;55675;49.588;8.640;2022-09-16T06:26:13;2.57;;;1.90;;
68690;SDS011;55675;49.588;8.640;2022-09-16T06:28:41;2.83;;;2.17;;
68690;SDS011;55675;49.588;8.640;2022-09-16T06:31:09;3.83;;;2.20;;
68690;SDS011;55675;49.588;8.640;2022-09-16T06:33:36;5.27;;;2.33;;
68690;SDS011;55675;49.588;8.640;2022-09-16T06:36:06;7.00;;;2.20;;
68690;SDS011;55675;49.588;8.640;2022-09-16T06:38:34;4.87;;;2.07;;
68690;SDS011;55675;49.588;8.640;2022-09-16T06:41:01;4.50;;;2.30;;
68690;SDS011;55675;49.588;8.640;2022-09-16T06:43:30;5.23;;;2.43;;
68690;SDS011;55675;49.588;8.640;2022-09-16T06:45:57;5.03;;;2.00;;
68690;SDS011;55675;49.588;8.640;2022-09-16T06:48:28;2.87;;;2.00;;
68690;SDS011;55675;49.588;8.640;2022-09-16T06:50:57;4.70;;;2.17;;
68690;SDS011;55675;49.588;8.640;2022-09-16T06:53:26;5.00;;;1.80;;
68690;SDS011;55675;49.588;8.640;2022-09-16T06:55:52;4.17;;;1.60;;
68690;SDS011;55675;49.588;8.640;2022-09-16T06:58:18;3.73;;;1.47;;
68690;SDS011;55675;49.588;8.640;2022-09-16T07:00:43;3.23;;;1.37;;
68690;SDS011;55675;49.588;8.640;2022-09-16T07:03:09;2.47;;;1.40;;
68690;SDS011;55675;49.588;8.640;2022-09-16T07:05:35;3.40;;;1.57;;
68690;SDS011;55675;49.588;8.640;2022-09-16T07:08:00;1.50;;;1.40;;
68690;SDS011;55675;49.588;8.640;2022-09-16T07:10:26;1.97;;;1.20;;
68690;SDS011;55675;49.588;8.640;2022-09-16T07:12:52;2.47;;;1.40;;
68690;SDS011;55675;49.588;8.640;2022-09-16T07:15:17;2.50;;;1.33;;
68690;SDS011;55675;49.588;8.640;2022-09-16T07:17:43;3.77;;;1.57;;
68690;SDS011;55675;49.588;8.640;2022-09-16T07:20:08;4.83;;;1.27;;
68690;SDS011;55675;49.588;8.640;2022-09-16T07:22:34;1.50;;;1.40;;
68690;SDS011;55675;49.588;8.640;2022-09-16T07:24:59;3.50;;;1.40;;
68690;SDS011;55675;49.588;8.640;2022-09-16T07:27:25;3.60;;;1.30;;
68690;SDS011;55675;49.588;8.640;2022-09-16T07:29:51;2.63;;;1.50;;
68690;SDS011;55675;49.588;8.640;2022-09-16T07:32:18;2.93;;;1.10;;
68690;SDS011;55675;49.588;8.640;2022-09-16T07:34:43;1.50;;;1.40;;
68690;SDS011;55675;49.588;8.640;2022-09-16T07:37:09;2.03;;;1.47;;
68690;SDS011;55675;49.588;8.640;2022-09-16T07:39:35;1.67;;;1.40;;
68690;SDS011;55675;49.588;8.640;2022-09-16T07:42:01;1.97;;;1.30;;
68690;SDS011;55675;49.588;8.640;2022-09-16T07:44:27;4.10;;;1.50;;
68690;SDS011;55675;49.588;8.640;2022-09-16T07:46:53;2.83;;;1.40;;
68690;SDS011;55675;49.588;8.640;2022-09-16T07:49:19;2.73;;;1.30;;
68690;SDS011;55675;49.588;8.640;2022-09-16T07:51:44;1.90;;;1.10;;
68690;SDS011;55675;49.588;8.640;2022-09-16T07:54:11;1.80;;;1.10;;
68690;SDS011;55675;49.588;8.640;2022-09-16T07:56:40;1.43;;;1.20;;
68690;SDS011;55675;49.588;8.640;2022-09-16T07:59:09;2.87;;;1.50;;
68690;SDS011;55675;49.588;8.640;2022-09-16T08:01:37;4.63;;;1.57;;
68690;SDS011;55675;49.588;8.640;2022-09-16T08:04:03;1.40;;;1.30;;
68690;SDS011;55675;49.588;8.640;2022-09-16T08:06:29;2.60;;;1.20;;
68690;SDS011;55675;49.588;8.640;2022-09-16T08:08:57;3.57;;;1.30;;
68690;SDS011;55675;49.588;8.640;2022-09-16T08:11:25;2.93;;;1.07;;
68690;SDS011;55675;49.588;8.640;2022-09-16T08:13:51;2.40;;;0.90;;
68690;SDS011;55675;49.588;8.640;2022-09-16T08:16:18;1.93;;;0.93;;
68690;SDS011;55675;49.588;8.640;2022-09-16T08:18:47;1.57;;;1.10;;
68690;SDS011;55675;49.588;8.640;2022-09-16T08:21:15;1.50;;;0.87;;
68690;SDS011;55675;49.588;8.640;2022-09-16T08:23:43;2.30;;;0.90;;
68690;SDS011;55675;49.588;8.640;2022-09-16T08:26:09;2.80;;;1.30;;
68690;SDS011;55675;49.588;8.640;2022-09-16T08:28:37;1.83;;;1.00;;
68690;SDS011;55675;49.588;8.640;2022-09-16T08:31:03;2.07;;;1.00;;
68690;SDS011;55675;49.588;8.640;2022-09-16T08:33:29;1.80;;;0.80;;
68690;SDS011;55675;49.588;8.640;2022-09-16T08:38:24;3.07;;;1.10;;
68690;SDS011;55675;49.588;8.640;2022-09-16T08:40:49;2.63;;;1.00;;
68690;SDS011;55675;49.588;8.640;2022-09-16T08:43:27;2.40;;;0.90;;
68690;SDS011;55675;49.588;8.640;2022-09-16T08:50:59;1.27;;;0.80;;
68690;SDS011;55675;49.588;8.640;2022-09-16T08:53:40;3.27;;;1.13;;
68690;SDS011;55675;49.588;8.640;2022-09-16T08:56:09;2.80;;;1.47;;
68690;SDS011;55675;49.588;8.640;2022-09-16T08:58:42;2.57;;;1.17;;
68690;SDS011;55675;49.588;8.640;2022-09-16T09:04:12;0.90;;;0.70;;
68690;SDS011;55675;49.588;8.640;2022-09-16T09:12:29;0.67;;;0.67;;
68690;SDS011;55675;49.588;8.640;2022-09-16T09:26:19;1.00;;;0.57;;
68690;SDS011;55675;49.588;8.640;2022-09-16T09:34:48;1.77;;;0.70;;
68690;SDS011;55675;49.588;8.640;2022-09-16T09:37:36;0.70;;;0.70;;
68690;SDS011;55675;49.588;8.640;2022-09-16T09:43:38;1.47;;;0.73;;
68690;SDS011;55675;49.588;8.640;2022-09-16T09:48:34;1.93;;;1.00;;
68690;SDS011;55675;49.588;8.640;2022-09-16T09:51:04;2.37;;;0.80;;
68690;SDS011;55675;49.588;8.640;2022-09-16T09:53:44;1.53;;;0.70;;
68690;SDS011;55675;49.588;8.640;2022-09-16T09:56:23;3.43;;;0.70;;
68690;SDS011;55675;49.588;8.640;2022-09-16T09:59:09;1.80;;;0.80;;
68690;SDS011;55675;49.588;8.640;2022-09-16T10:01:55;2.43;;;0.70;;
68690;SDS011;55675;49.588;8.640;2022-09-16T10:04:22;2.33;;;0.70;;
68690;SDS011;55675;49.588;8.640;2022-09-16T10:06:48;1.80;;;0.80;;
68690;SDS011;55675;49.588;8.640;2022-09-16T10:09:15;2.77;;;1.17;;
68690;SDS011;55675;49.588;8.640;2022-09-16T10:11:50;0.80;;;0.80;;
68690;SDS011;55675;49.588;8.640;2022-09-16T10:14:29;2.40;;;0.80;;
68690;SDS011;55675;49.588;8.640;2022-09-16T10:17:01;2.33;;;0.80;;
68690;SDS011;55675;49.588;8.640;2022-09-16T10:19:29;0.60;;;0.60;;
68690;SDS011;55675;49.588;8.640;2022-09-16T10:22:10;1.33;;;0.80;;
68690;SDS011;55675;49.588;8.640;2022-09-16T10:24:51;1.60;;;0.83;;
68690;SDS011;55675;49.588;8.640;2022-09-16T10:27:32;0.60;;;0.60;;
68690;SDS011;55675;49.588;8.640;2022-09-16T10:35:17;0.77;;;0.53;;
68690;SDS011;55675;49.588;8.640;2022-09-16T10:37:58;2.73;;;0.70;;
68690;SDS011;55675;49.588;8.640;2022-09-16T10:41:42;3.77;;;0.90;;
68690;SDS011;55675;49.588;8.640;2022-09-16T10:43:56;0.70;;;0.70;;
68690;SDS011;55675;49.588;8.640;2022-09-16T10:46:27;2.03;;;0.70;;
68690;SDS011;55675;49.588;8.640;2022-09-16T10:48:57;0.63;;;0.60;;
68690;SDS011;55675;49.588;8.640;2022-09-16T10:51:27;1.43;;;0.70;;
68690;SDS011;55675;49.588;8.640;2022-09-16T10:53:55;1.00;;;0.60;;
68690;SDS011;55675;49.588;8.640;2022-09-16T10:56:24;1.17;;;0.63;;
68690;SDS011;55675;49.588;8.640;2022-09-16T10:59:08;2.73;;;0.93;;
68690;SDS011;55675;49.588;8.640;2022-09-16T11:01:43;0.70;;;0.70;;
68690;SDS011;55675;49.588;8.640;2022-09-16T11:24:24;1.17;;;0.73;;
68690;SDS011;55675;49.588;8.640;2022-09-16T11:26:31;1.70;;;0.70;;
68690;SDS011;55675;49.588;8.640;2022-09-16T11:29:46;1.97;;;0.77;;
68690;SDS011;55675;49.588;8.640;2022-09-16T11:32:28;2.77;;;1.00;;
68690;SDS011;55675;49.588;8.640;2022-09-16T11:37:53;1.40;;;0.60;;
68690;SDS011;55675;49.588;8.640;2022-09-16T11:48:50;1.30;;;0.40;;
68690;SDS011;55675;49.588;8.640;2022-09-16T11:51:37;0.57;;;0.47;;
68690;SDS011;55675;49.588;8.640;2022-09-16T11:57:08;1.80;;;0.80;;
68690;SDS011;55675;49.588;8.640;2022-09-16T11:59:38;4.27;;;0.90;;
68690;SDS011;55675;49.588;8.640;2022-09-16T12:02:15;0.83;;;0.40;;
68690;SDS011;55675;49.588;8.640;2022-09-16T12:04:52;0.97;;;0.60;;
68690;SDS011;55675;49.588;8.640;2022-09-16T12:07:41;2.17;;;0.60;;
68690;SDS011;55675;49.588;8.640;2022-09-16T12:13:15;0.97;;;0.67;;
68690;SDS011;55675;49.588;8.640;2022-09-16T12:16:00;1.30;;;0.80;;
68690;SDS011;55675;49.588;8.640;2022-09-16T12:18:30;2.00;;;0.70;;
68690;SDS011;55675;49.588;8.640;2022-09-16T12:21:04;0.67;;;0.47;;
68690;SDS011;55675;49.588;8.640;2022-09-16T12:23:33;0.70;;;0.70;;
68690;SDS011;55675;49.588;8.640;2022-09-16T12:26:06;0.73;;;0.43;;
68690;SDS011;55675;49.588;8.640;2022-09-16T12:28:55;2.23;;;0.47;;
68690;SDS011;55675;49.588;8.640;2022-09-16T12:31:29;1.43;;;0.40;;
68690;SDS011;55675;49.588;8.640;2022-09-16T12:37:14;1.03;;;0.50;;
68690;SDS011;55675;49.588;8.640;2022-09-16T12:39:59;0.83;;;0.50;;
68690;SDS011;55675;49.588;8.640;2022-09-16T12:42:40;0.97;;;0.60;;
68690;SDS011;55675;49.588;8.640;2022-09-16T12:45:32;0.87;;;0.63;;
68690;SDS011;55675;49.588;8.640;2022-09-16T12:48:28;2.17;;;0.70;;
68690;SDS011;55675;49.588;8.640;2022-09-16T12:51:03;1.93;;;0.80;;
68690;SDS011;55675;49.588;8.640;2022-09-16T12:59:20;0.47;;;0.40;;
68690;SDS011;55675;49.588;8.640;2022-09-16T13:01:59;0.40;;;0.40;;
68690;SDS011;55675;49.588;8.640;2022-09-16T13:04:42;0.60;;;0.60;;
68690;SDS011;55675;49.588;8.640;2022-09-16T13:07:18;0.43;;;0.43;;
68690;SDS011;55675;49.588;8.640;2022-09-16T13:09:47;0.43;;;0.43;;
68690;SDS011;55675;49.588;8.640;2022-09-16T13:12:20;1.30;;;0.50;;
68690;SDS011;55675;49.588;8.640;2022-09-16T13:14:52;0.87;;;0.60;;
68690;SDS011;55675;49.588;8.640;2022-09-16T13:17:35;0.83;;;0.77;;
68690;SDS011;55675;49.588;8.640;2022-09-16T13:22:43;1.33;;;0.70;;
68690;SDS011;55675;49.588;8.640;2022-09-16T13:31:44;0.53;;;0.53;;
68690;SDS011;55675;49.588;8.640;2022-09-16T13:38:50;0.70;;;0.70;;
68690;SDS011;55675;49.588;8.640;2022-09-16T13:49:34;1.37;;;0.80;;
68690;SDS011;55675;49.588;8.640;2022-09-16T13:52:18;0.80;;;0.80;;
68690;SDS011;55675;49.588;8.640;2022-09-16T13:54:53;0.80;;;0.50;;
68690;SDS011;55675;49.588;8.640;2022-09-16T13:57:24;0.47;;;0.47;;
68690;SDS011;55675;49.588;8.640;2022-09-16T14:00:13;0.80;;;0.40;;
68690;SDS011;55675;49.588;8.640;2022-09-16T14:02:59;1.23;;;0.70;;
68690;SDS011;55675;49.588;8.640;2022-09-16T14:08:21;1.00;;;0.50;;
68690;SDS011;55675;49.588;8.640;2022-09-16T14:13:55;0.50;;;0.50;;
68690;SDS011;55675;49.588;8.640;2022-09-16T14:16:31;1.73;;;0.80;;
68690;SDS011;55675;49.588;8.640;2022-09-16T14:19:14;1.83;;;0.80;;
68690;SDS011;55675;49.588;8.640;2022-09-16T14:24:41;1.20;;;0.77;;
68690;SDS011;55675;49.588;8.640;2022-09-16T14:27:17;1.17;;;0.70;;
68690;SDS011;55675;49.588;8.640;2022-09-16T14:29:59;1.70;;;0.87;;
68690;SDS011;55675;49.588;8.640;2022-09-16T14:32:30;0.57;;;0.57;;
68690;SDS011;55675;49.588;8.640;2022-09-16T14:35:18;0.73;;;0.60;;
68690;SDS011;55675;49.588;8.640;2022-09-16T14:37:47;1.13;;;0.50;;
68690;SDS011;55675;49.588;8.640;2022-09-16T14:40:17;1.20;;;0.47;;
68690;SDS011;55675;49.588;8.640;2022-09-16T14:42:59;0.60;;;0.60;;
68690;SDS011;55675;49.588;8.640;2022-09-16T14:45:28;1.63;;;0.90;;
68690;SDS011;55675;49.588;8.640;2022-09-16T14:47:55;1.17;;;0.70;;
68690;SDS011;55675;49.588;8.640;2022-09-16T14:50:31;2.10;;;0.80;;
68690;SDS011;55675;49.588;8.640;2022-09-16T14:53:05;1.13;;;0.70;;
68690;SDS011;55675;49.588;8.640;2022-09-16T14:55:34;0.63;;;0.63;;
68690;SDS011;55675;49.588;8.640;2022-09-16T14:58:04;1.43;;;0.70;;
68690;SDS011;55675;49.588;8.640;2022-09-16T15:00:38;0.60;;;0.60;;
68690;SDS011;55675;49.588;8.640;2022-09-16T15:03:13;0.80;;;0.80;;
68690;SDS011;55675;49.588;8.640;2022-09-16T15:05:48;0.50;;;0.40;;
68690;SDS011;55675;49.588;8.640;2022-09-16T15:08:24;0.40;;;0.40;;
68690;SDS011;55675;49.588;8.640;2022-09-16T15:11:13;0.43;;;0.37;;
68690;SDS011;55675;49.588;8.640;2022-09-16T15:13:42;1.33;;;0.40;;
68690;SDS011;55675;49.588;8.640;2022-09-16T15:16:10;0.30;;;0.30;;
68690;SDS011;55675;49.588;8.640;2022-09-16T15:18:52;0.80;;;0.40;;
68690;SDS011;55675;49.588;8.640;2022-09-16T15:21:26;0.83;;;0.50;;
68690;SDS011;55675;49.588;8.640;2022-09-16T15:23:57;0.50;;;0.40;;
68690;SDS011;55675;49.588;8.640;2022-09-16T15:26:30;0.57;;;0.53;;
68690;SDS011;55675;49.588;8.640;2022-09-16T15:31:41;0.33;;;0.33;;
68690;SDS011;55675;49.588;8.640;2022-09-16T15:36:47;0.27;;;0.27;;
68690;SDS011;55675;49.588;8.640;2022-09-16T15:41:48;0.27;;;0.27;;
68690;SDS011;55675;49.588;8.640;2022-09-16T15:44:15;0.33;;;0.33;;
68690;SDS011;55675;49.588;8.640;2022-09-16T15:46:47;0.50;;;0.30;;
68690;SDS011;55675;49.588;8.640;2022-09-16T15:49:15;1.07;;;0.30;;
68690;SDS011;55675;49.588;8.640;2022-09-16T15:51:44;1.87;;;0.50;;
68690;SDS011;55675;49.588;8.640;2022-09-16T15:56:49;0.40;;;0.33;;
68690;SDS011;55675;49.588;8.640;2022-09-16T15:59:28;0.20;;;0.20;;
68690;SDS011;55675;49.588;8.640;2022-09-16T16:02:04;0.20;;;0.20;;
68690;SDS011;55675;49.588;8.640;2022-09-16T16:05:16;0.80;;;0.40;;
68690;SDS011;55675;49.588;8.640;2022-09-16T16:07:46;0.40;;;0.40;;
68690;SDS011;55675;49.588;8.640;2022-09-16T16:12:53;0.83;;;0.40;;
68690;SDS011;55675;49.588;8.640;2022-09-16T16:15:23;0.40;;;0.40;;
68690;SDS011;55675;49.588;8.640;2022-09-16T16:17:56;1.17;;;0.40;;
68690;SDS011;55675;49.588;8.640;2022-09-16T16:20:25;0.37;;;0.37;;
68690;SDS011;55675;49.588;8.640;2022-09-16T16:22:51;3.50;;;0.50;;
68690;SDS011;55675;49.588;8.640;2022-09-16T16:25:17;0.50;;;0.50;;
68690;SDS011;55675;49.588;8.640;2022-09-16T16:27:42;1.50;;;0.60;;
68690;SDS011;55675;49.588;8.640;2022-09-16T16:30:09;0.40;;;0.40;;
68690;SDS011;55675;49.588;8.640;2022-09-16T16:32:35;0.97;;;0.40;;
68690;SDS011;55675;49.588;8.640;2022-09-16T16:35:03;1.87;;;0.70;;
68690;SDS011;55675;49.588;8.640;2022-09-16T16:37:29;0.83;;;0.50;;
68690;SDS011;55675;49.588;8.640;2022-09-16T16:39:54;0.40;;;0.40;;
68690;SDS011;55675;49.588;8.640;2022-09-16T16:42:20;1.23;;;0.30;;
68690;SDS011;55675;49.588;8.640;2022-09-16T16:44:47;0.40;;;0.40;;
68690;SDS011;55675;49.588;8.640;2022-09-16T16:47:12;0.30;;;0.30;;
68690;SDS011;55675;49.588;8.640;2022-09-16T16:49:38;1.00;;;0.30;;
68690;SDS011;55675;49.588;8.640;2022-09-16T16:52:04;0.17;;;0.17;;
68690;SDS011;55675;49.588;8.640;2022-09-16T16:54:32;0.40;;;0.30;;
68690;SDS011;55675;49.588;8.640;2022-09-16T16:56:58;0.87;;;0.20;;
68690;SDS011;55675;49.588;8.640;2022-09-16T16:59:24;0.30;;;0.30;;
68690;SDS011;55675;49.588;8.640;2022-09-16T17:01:51;0.50;;;0.50;;
68690;SDS011;55675;49.588;8.640;2022-09-16T17:04:18;2.00;;;0.40;;
68690;SDS011;55675;49.588;8.640;2022-09-16T17:06:44;0.33;;;0.33;;
68690;SDS011;55675;49.588;8.640;2022-09-16T17:09:10;0.30;;;0.30;;
68690;SDS011;55675;49.588;8.640;2022-09-16T17:11:36;1.57;;;0.53;;
68690;SDS011;55675;49.588;8.640;2022-09-16T17:14:24;0.47;;;0.47;;
68690;SDS011;55675;49.588;8.640;2022-09-16T17:16:51;0.40;;;0.33;;
68690;SDS011;55675;49.588;8.640;2022-09-16T17:19:18;0.70;;;0.40;;
68690;SDS011;55675;49.588;8.640;2022-09-16T17:21:46;0.63;;;0.50;;
68690;SDS011;55675;49.588;8.640;2022-09-16T17:24:14;0.40;;;0.40;;
68690;SDS011;55675;49.588;8.640;2022-09-16T17:26:40;0.30;;;0.20;;
68690;SDS011;55675;49.588;8.640;2022-09-16T17:29:07;1.10;;;0.40;;
68690;SDS011;55675;49.588;8.640;2022-09-16T17:31:33;0.40;;;0.40;;
68690;SDS011;55675;49.588;8.640;2022-09-16T17:34:00;1.23;;;0.43;;
68690;SDS011;55675;49.588;8.640;2022-09-16T17:36:29;0.83;;;0.30;;
68690;SDS011;55675;49.588;8.640;2022-09-16T17:39:00;0.30;;;0.30;;
68690;SDS011;55675;49.588;8.640;2022-09-16T17:41:27;0.50;;;0.50;;
68690;SDS011;55675;49.588;8.640;2022-09-16T17:43:54;0.53;;;0.43;;
68690;SDS011;55675;49.588;8.640;2022-09-16T17:46:20;1.77;;;0.57;;
68690;SDS011;55675;49.588;8.640;2022-09-16T17:48:48;0.50;;;0.50;;
68690;SDS011;55675;49.588;8.640;2022-09-16T17:51:15;0.53;;;0.53;;
68690;SDS011;55675;49.588;8.640;2022-09-16T17:53:41;1.10;;;0.70;;
68690;SDS011;55675;49.588;8.640;2022-09-16T17:56:08;0.43;;;0.43;;